Everetts, North Carolina
Current Conditions -  °F | °C
As of 3:55 PM on Tuesday 27 Jan 2015 (Local Time) from KPGV Reporting Station
Broken Clouds Broken Clouds  
Wind Chill: 32°   Ceiling: 3200
Heat Index: 39°   Visibility: 10mi
Dew Point: 28°   Wind: 10mph
Humidity: 65%   Direction: 340°NNW
Pressure: 29.85"   Gusts: 18mph
Location:  35.83°N, 77.17°W
Report Text: KPGV 272055Z AUTO 34009G16KT 10SM BKN032 04/M02 A2985 RMK AO2
Loading
Personal Weather Stations






























Interactive Weather Map New forecast layout! Learn more

10-Day Weather Forecast

Advertisements
Track Severe Weather on mobile